sensor_id;sensor_type;location;lat;lon;timestamp;pressure;altitude;pressure_sealevel;temperature;humidity
35655;BME280;21773;50.010;19.972;2023-03-22T00:02:05;98717.28;;;13.69;64.53
35655;BME280;21773;50.010;19.972;2023-03-22T00:05:08;98726.97;;;13.65;64.60
35655;BME280;21773;50.010;19.972;2023-03-22T00:08:11;98724.84;;;13.67;64.75
35655;BME280;21773;50.010;19.972;2023-03-22T00:11:15;98715.81;;;13.61;64.75
35655;BME280;21773;50.010;19.972;2023-03-22T00:14:19;98719.50;;;13.55;64.71
35655;BME280;21773;50.010;19.972;2023-03-22T00:17:24;98701.09;;;13.40;65.02
35655;BME280;21773;50.010;19.972;2023-03-22T00:20:27;98702.50;;;13.43;64.71
35655;BME280;21773;50.010;19.972;2023-03-22T00:23:31;98702.97;;;13.40;64.81
35655;BME280;21773;50.010;19.972;2023-03-22T00:26:34;98710.28;;;13.39;64.53
35655;BME280;21773;50.010;19.972;2023-03-22T00:29:37;98699.72;;;13.38;64.42
35655;BME280;21773;50.010;19.972;2023-03-22T00:32:42;98697.97;;;13.32;64.51
35655;BME280;21773;50.010;19.972;2023-03-22T00:35:48;98694.34;;;13.26;64.26
35655;BME280;21773;50.010;19.972;2023-03-22T00:38:52;98691.78;;;13.20;63.77
35655;BME280;21773;50.010;19.972;2023-03-22T00:41:55;98683.00;;;13.13;63.86
35655;BME280;21773;50.010;19.972;2023-03-22T00:44:58;98691.50;;;13.05;63.59
35655;BME280;21773;50.010;19.972;2023-03-22T00:48:03;98679.56;;;12.89;63.96
35655;BME280;21773;50.010;19.972;2023-03-22T00:51:08;98697.28;;;12.96;64.27
35655;BME280;21773;50.010;19.972;2023-03-22T00:54:11;98698.31;;;12.95;64.10
35655;BME280;21773;50.010;19.972;2023-03-22T00:57:16;98695.69;;;12.84;64.24
35655;BME280;21773;50.010;19.972;2023-03-22T01:00:20;98691.81;;;12.80;63.93
35655;BME280;21773;50.010;19.972;2023-03-22T01:03:25;98688.66;;;12.71;63.76
35655;BME280;21773;50.010;19.972;2023-03-22T01:06:28;98691.97;;;12.62;64.22
35655;BME280;21773;50.010;19.972;2023-03-22T01:09:32;98690.25;;;12.55;64.21
35655;BME280;21773;50.010;19.972;2023-03-22T01:12:36;98676.25;;;12.47;64.57
35655;BME280;21773;50.010;19.972;2023-03-22T01:15:39;98679.44;;;12.44;64.20
35655;BME280;21773;50.010;19.972;2023-03-22T01:18:44;98672.63;;;12.41;64.06
35655;BME280;21773;50.010;19.972;2023-03-22T01:21:48;98661.72;;;12.36;64.25
35655;BME280;21773;50.010;19.972;2023-03-22T01:24:51;98665.22;;;12.37;63.95
35655;BME280;21773;50.010;19.972;2023-03-22T01:27:54;98661.47;;;12.38;63.87
35655;BME280;21773;50.010;19.972;2023-03-22T01:31:00;98651.72;;;12.37;64.29
35655;BME280;21773;50.010;19.972;2023-03-22T01:34:05;98663.13;;;12.39;64.32
35655;BME280;21773;50.010;19.972;2023-03-22T01:37:08;98652.91;;;12.41;64.73
35655;BME280;21773;50.010;19.972;2023-03-22T01:40:15;98644.78;;;12.41;64.58
35655;BME280;21773;50.010;19.972;2023-03-22T01:43:19;98639.63;;;12.39;64.11
35655;BME280;21773;50.010;19.972;2023-03-22T01:46:23;98632.00;;;12.36;64.22
35655;BME280;21773;50.010;19.972;2023-03-22T01:49:30;98638.09;;;12.32;63.62
35655;BME280;21773;50.010;19.972;2023-03-22T01:52:35;98632.69;;;12.32;64.24
35655;BME280;21773;50.010;19.972;2023-03-22T01:55:45;98621.06;;;12.31;63.83
35655;BME280;21773;50.010;19.972;2023-03-22T01:58:56;98615.56;;;12.26;64.43
35655;BME280;21773;50.010;19.972;2023-03-22T02:02:09;98620.59;;;12.23;64.39
35655;BME280;21773;50.010;19.972;2023-03-22T02:05:27;98612.06;;;12.14;63.07
35655;BME280;21773;50.010;19.972;2023-03-22T02:08:33;98614.31;;;12.05;63.35
35655;BME280;21773;50.010;19.972;2023-03-22T02:11:48;98600.59;;;11.95;64.46
35655;BME280;21773;50.010;19.972;2023-03-22T02:15:07;98585.09;;;11.91;65.19
35655;BME280;21773;50.010;19.972;2023-03-22T02:18:55;98600.09;;;11.98;65.38
35655;BME280;21773;50.010;19.972;2023-03-22T02:22:20;98602.81;;;11.98;64.91
35655;BME280;21773;50.010;19.972;2023-03-22T02:25:44;98594.59;;;11.93;64.20
35655;BME280;21773;50.010;19.972;2023-03-22T02:28:57;98583.09;;;11.86;63.61
35655;BME280;21773;50.010;19.972;2023-03-22T02:32:46;98591.09;;;11.81;64.15
35655;BME280;21773;50.010;19.972;2023-03-22T02:36:11;98574.19;;;11.74;63.53
35655;BME280;21773;50.010;19.972;2023-03-22T02:39:30;98578.97;;;11.72;63.72
35655;BME280;21773;50.010;19.972;2023-03-22T02:42:43;98581.19;;;11.63;63.70
35655;BME280;21773;50.010;19.972;2023-03-22T02:45:55;98586.03;;;11.61;63.88
35655;BME280;21773;50.010;19.972;2023-03-22T02:49:04;98584.84;;;11.57;63.56
35655;BME280;21773;50.010;19.972;2023-03-22T02:52:15;98587.78;;;11.56;63.98
35655;BME280;21773;50.010;19.972;2023-03-22T02:55:25;98570.66;;;11.50;63.89
35655;BME280;21773;50.010;19.972;2023-03-22T02:58:35;98564.78;;;11.42;63.31
35655;BME280;21773;50.010;19.972;2023-03-22T03:01:43;98580.06;;;11.48;62.94
35655;BME280;21773;50.010;19.972;2023-03-22T03:04:50;98585.06;;;11.44;63.19
35655;BME280;21773;50.010;19.972;2023-03-22T03:07:57;98583.78;;;11.35;62.96
35655;BME280;21773;50.010;19.972;2023-03-22T03:11:07;98579.91;;;11.31;63.33
35655;BME280;21773;50.010;19.972;2023-03-22T03:14:22;98583.31;;;11.26;63.71
35655;BME280;21773;50.010;19.972;2023-03-22T03:17:37;98581.44;;;11.27;64.45
35655;BME280;21773;50.010;19.972;2023-03-22T03:20:51;98586.47;;;11.35;65.11
35655;BME280;21773;50.010;19.972;2023-03-22T03:24:05;98587.19;;;11.30;63.00
35655;BME280;21773;50.010;19.972;2023-03-22T03:27:22;98596.81;;;11.26;62.71
35655;BME280;21773;50.010;19.972;2023-03-22T03:30:32;98597.72;;;11.20;62.36
35655;BME280;21773;50.010;19.972;2023-03-22T03:33:43;98595.13;;;11.02;62.25
35655;BME280;21773;50.010;19.972;2023-03-22T03:36:52;98595.69;;;10.93;61.61
35655;BME280;21773;50.010;19.972;2023-03-22T03:40:02;98587.94;;;10.84;62.66
35655;BME280;21773;50.010;19.972;2023-03-22T03:43:09;98590.13;;;10.76;62.34
35655;BME280;21773;50.010;19.972;2023-03-22T03:46:13;98587.75;;;10.68;61.84
35655;BME280;21773;50.010;19.972;2023-03-22T03:49:18;98589.38;;;10.57;61.73
35655;BME280;21773;50.010;19.972;2023-03-22T03:52:22;98589.59;;;10.56;62.24
35655;BME280;21773;50.010;19.972;2023-03-22T03:55:27;98581.75;;;10.54;62.29
35655;BME280;21773;50.010;19.972;2023-03-22T03:58:33;98589.16;;;10.59;63.41
35655;BME280;21773;50.010;19.972;2023-03-22T04:01:36;98590.66;;;10.55;65.08
35655;BME280;21773;50.010;19.972;2023-03-22T04:04:47;98593.03;;;10.63;65.37
35655;BME280;21773;50.010;19.972;2023-03-22T04:07:53;98593.91;;;10.75;64.93
35655;BME280;21773;50.010;19.972;2023-03-22T04:10:56;98605.38;;;10.82;64.38
35655;BME280;21773;50.010;19.972;2023-03-22T04:14:01;98605.75;;;10.85;64.07
35655;BME280;21773;50.010;19.972;2023-03-22T04:17:04;98609.38;;;10.79;62.97
35655;BME280;21773;50.010;19.972;2023-03-22T04:20:09;98612.03;;;10.68;61.37
35655;BME280;21773;50.010;19.972;2023-03-22T04:23:14;98605.13;;;10.42;61.15
35655;BME280;21773;50.010;19.972;2023-03-22T04:26:20;98595.41;;;10.23;61.06
35655;BME280;21773;50.010;19.972;2023-03-22T04:29:46;98587.94;;;9.88;61.18
35655;BME280;21773;50.010;19.972;2023-03-22T04:33:21;98609.47;;;9.88;61.89
35655;BME280;21773;50.010;19.972;2023-03-22T04:36:51;98618.53;;;9.76;62.38
35655;BME280;21773;50.010;19.972;2023-03-22T04:40:01;98617.44;;;9.58;62.32
35655;BME280;21773;50.010;19.972;2023-03-22T04:43:20;98622.22;;;9.56;62.88
35655;BME280;21773;50.010;19.972;2023-03-22T04:46:34;98621.81;;;9.53;63.23
35655;BME280;21773;50.010;19.972;2023-03-22T04:49:40;98620.19;;;9.52;62.96
35655;BME280;21773;50.010;19.972;2023-03-22T04:52:44;98616.91;;;9.50;62.33
35655;BME280;21773;50.010;19.972;2023-03-22T04:55:49;98621.69;;;9.48;62.60
35655;BME280;21773;50.010;19.972;2023-03-22T04:58:53;98619.44;;;9.45;62.40
35655;BME280;21773;50.010;19.972;2023-03-22T05:01:58;98634.53;;;9.46;62.35
35655;BME280;21773;50.010;19.972;2023-03-22T05:05:06;98627.66;;;9.50;62.46
35655;BME280;21773;50.010;19.972;2023-03-22T05:08:13;98629.69;;;9.54;62.24
35655;BME280;21773;50.010;19.972;2023-03-22T05:11:20;98634.66;;;9.57;62.07
35655;BME280;21773;50.010;19.972;2023-03-22T05:14:39;98623.06;;;9.57;61.96
35655;BME280;21773;50.010;19.972;2023-03-22T05:17:46;98630.88;;;9.58;61.72
35655;BME280;21773;50.010;19.972;2023-03-22T05:20:50;98635.03;;;9.61;61.72
35655;BME280;21773;50.010;19.972;2023-03-22T05:23:57;98640.31;;;9.68;61.60
35655;BME280;21773;50.010;19.972;2023-03-22T05:27:01;98641.34;;;9.91;61.25
35655;BME280;21773;50.010;19.972;2023-03-22T05:30:08;98638.44;;;10.11;60.89
35655;BME280;21773;50.010;19.972;2023-03-22T05:33:22;98640.38;;;10.22;60.49
35655;BME280;21773;50.010;19.972;2023-03-22T05:36:28;98629.91;;;10.32;60.52
35655;BME280;21773;50.010;19.972;2023-03-22T05:39:52;98613.53;;;10.34;60.62
35655;BME280;21773;50.010;19.972;2023-03-22T05:43:04;98633.69;;;10.61;60.41
35655;BME280;21773;50.010;19.972;2023-03-22T05:46:10;98637.84;;;10.75;60.43
35655;BME280;21773;50.010;19.972;2023-03-22T05:49:35;98605.72;;;10.74;60.60
35655;BME280;21773;50.010;19.972;2023-03-22T05:52:39;98629.97;;;11.04;60.44
35655;BME280;21773;50.010;19.972;2023-03-22T05:55:54;98625.88;;;11.13;60.30
35655;BME280;21773;50.010;19.972;2023-03-22T05:59:04;98626.28;;;11.28;60.67
35655;BME280;21773;50.010;19.972;2023-03-22T06:02:08;98632.72;;;11.39;61.28
35655;BME280;21773;50.010;19.972;2023-03-22T06:05:14;98628.88;;;11.58;61.68
35655;BME280;21773;50.010;19.972;2023-03-22T06:08:19;98635.13;;;11.82;60.80
35655;BME280;21773;50.010;19.972;2023-03-22T06:11:24;98632.06;;;12.01;60.75
35655;BME280;21773;50.010;19.972;2023-03-22T06:14:28;98631.69;;;12.21;60.80
35655;BME280;21773;50.010;19.972;2023-03-22T06:17:42;98647.00;;;12.44;60.96
35655;BME280;21773;50.010;19.972;2023-03-22T06:20:51;98648.91;;;12.72;61.41
35655;BME280;21773;50.010;19.972;2023-03-22T06:23:55;98646.69;;;12.97;61.12
35655;BME280;21773;50.010;19.972;2023-03-22T06:27:02;98647.16;;;13.22;60.20
35655;BME280;21773;50.010;19.972;2023-03-22T06:30:07;98645.97;;;13.47;59.70
35655;BME280;21773;50.010;19.972;2023-03-22T06:33:24;98645.31;;;13.73;59.18
35655;BME280;21773;50.010;19.972;2023-03-22T06:36:35;98646.59;;;13.87;57.33
35655;BME280;21773;50.010;19.972;2023-03-22T06:39:42;98652.78;;;14.04;56.97
35655;BME280;21773;50.010;19.972;2023-03-22T06:42:45;98654.66;;;14.20;56.96
35655;BME280;21773;50.010;19.972;2023-03-22T06:45:51;98620.09;;;14.11;55.91
35655;BME280;21773;50.010;19.972;2023-03-22T06:49:00;98640.28;;;14.20;55.57
35655;BME280;21773;50.010;19.972;2023-03-22T06:52:04;98647.34;;;14.21;55.47
35655;BME280;21773;50.010;19.972;2023-03-22T06:55:08;98640.28;;;14.20;55.89
35655;BME280;21773;50.010;19.972;2023-03-22T06:58:12;98634.59;;;14.21;56.01
35655;BME280;21773;50.010;19.972;2023-03-22T07:01:15;98631.63;;;14.23;56.44
35655;BME280;21773;50.010;19.972;2023-03-22T07:04:19;98637.63;;;14.25;56.64
35655;BME280;21773;50.010;19.972;2023-03-22T07:07:25;98650.19;;;14.31;56.97
35655;BME280;21773;50.010;19.972;2023-03-22T07:10:29;98638.00;;;14.33;56.83
35655;BME280;21773;50.010;19.972;2023-03-22T07:13:33;98642.59;;;14.33;56.84
35655;BME280;21773;50.010;19.972;2023-03-22T07:16:42;98644.94;;;14.41;57.18
35655;BME280;21773;50.010;19.972;2023-03-22T07:19:46;98648.25;;;14.48;56.82
35655;BME280;21773;50.010;19.972;2023-03-22T07:22:51;98640.25;;;14.58;56.40
35655;BME280;21773;50.010;19.972;2023-03-22T07:25:57;98634.34;;;14.66;56.21
35655;BME280;21773;50.010;19.972;2023-03-22T07:29:05;98637.47;;;14.75;56.28
35655;BME280;21773;50.010;19.972;2023-03-22T07:32:09;98644.56;;;14.81;56.35
35655;BME280;21773;50.010;19.972;2023-03-22T07:35:37;98646.56;;;14.91;55.62
35655;BME280;21773;50.010;19.972;2023-03-22T07:38:42;98642.88;;;15.02;55.53
35655;BME280;21773;50.010;19.972;2023-03-22T07:41:51;98637.31;;;15.13;55.20
35655;BME280;21773;50.010;19.972;2023-03-22T07:44:57;98641.28;;;15.33;55.16
35655;BME280;21773;50.010;19.972;2023-03-22T07:48:01;98630.63;;;15.53;53.88
35655;BME280;21773;50.010;19.972;2023-03-22T07:51:20;98636.25;;;15.83;53.29
35655;BME280;21773;50.010;19.972;2023-03-22T07:54:26;98634.75;;;16.50;51.72
35655;BME280;21773;50.010;19.972;2023-03-22T07:57:37;98635.53;;;17.43;48.90
35655;BME280;21773;50.010;19.972;2023-03-22T08:00:40;98631.19;;;17.77;48.13
35655;BME280;21773;50.010;19.972;2023-03-22T08:04:16;98630.09;;;17.78;46.70
35655;BME280;21773;50.010;19.972;2023-03-22T08:07:30;98630.78;;;18.34;46.68
35655;BME280;21773;50.010;19.972;2023-03-22T08:10:35;98625.81;;;18.51;46.14
35655;BME280;21773;50.010;19.972;2023-03-22T08:13:39;98631.44;;;18.80;46.36
35655;BME280;21773;50.010;19.972;2023-03-22T08:16:45;98611.38;;;19.00;45.97
35655;BME280;21773;50.010;19.972;2023-03-22T08:19:50;98625.63;;;19.31;45.72
35655;BME280;21773;50.010;19.972;2023-03-22T08:23:00;98625.84;;;19.44;44.44
35655;BME280;21773;50.010;19.972;2023-03-22T08:26:43;98622.91;;;19.99;43.55
35655;BME280;21773;50.010;19.972;2023-03-22T08:30:15;98613.34;;;20.91;42.46
35655;BME280;21773;50.010;19.972;2023-03-22T08:33:18;98609.94;;;21.69;40.29
35655;BME280;21773;50.010;19.972;2023-03-22T08:36:25;98616.38;;;22.38;39.07
35655;BME280;21773;50.010;19.972;2023-03-22T08:39:36;98611.88;;;22.69;37.70
35655;BME280;21773;50.010;19.972;2023-03-22T08:43:07;98603.50;;;22.88;38.25
35655;BME280;21773;50.010;19.972;2023-03-22T08:46:11;98615.44;;;22.56;38.09
35655;BME280;21773;50.010;19.972;2023-03-22T08:49:15;98623.19;;;22.27;38.47
35655;BME280;21773;50.010;19.972;2023-03-22T08:52:29;98618.59;;;22.22;39.30
35655;BME280;21773;50.010;19.972;2023-03-22T08:55:43;98618.78;;;22.39;39.12
35655;BME280;21773;50.010;19.972;2023-03-22T08:58:48;98616.38;;;22.79;38.76
35655;BME280;21773;50.010;19.972;2023-03-22T09:02:08;98618.25;;;23.64;37.67
35655;BME280;21773;50.010;19.972;2023-03-22T09:05:12;98615.50;;;23.64;36.73
35655;BME280;21773;50.010;19.972;2023-03-22T09:08:16;98608.94;;;23.51;37.14
35655;BME280;21773;50.010;19.972;2023-03-22T09:11:26;98600.25;;;23.22;37.02
35655;BME280;21773;50.010;19.972;2023-03-22T09:14:31;98607.91;;;22.89;37.38
35655;BME280;21773;50.010;19.972;2023-03-22T09:17:34;98607.91;;;22.62;38.17
35655;BME280;21773;50.010;19.972;2023-03-22T09:20:38;98605.78;;;22.31;38.84
35655;BME280;21773;50.010;19.972;2023-03-22T09:23:42;98602.50;;;22.02;39.51
35655;BME280;21773;50.010;19.972;2023-03-22T09:26:51;98595.41;;;21.69;40.16
35655;BME280;21773;50.010;19.972;2023-03-22T09:29:56;98589.47;;;21.29;40.35
35655;BME280;21773;50.010;19.972;2023-03-22T09:32:59;98585.19;;;21.04;41.18
35655;BME280;21773;50.010;19.972;2023-03-22T09:36:04;98576.63;;;20.68;41.07
35655;BME280;21773;50.010;19.972;2023-03-22T09:39:08;98573.56;;;20.33;42.27
35655;BME280;21773;50.010;19.972;2023-03-22T09:42:22;98571.53;;;20.14;42.99
35655;BME280;21773;50.010;19.972;2023-03-22T09:45:33;98567.59;;;20.02;43.24
35655;BME280;21773;50.010;19.972;2023-03-22T09:48:42;98566.84;;;19.96;43.66
35655;BME280;21773;50.010;19.972;2023-03-22T09:51:50;98560.44;;;20.06;43.32
35655;BME280;21773;50.010;19.972;2023-03-22T09:54:54;98567.78;;;20.34;43.13
35655;BME280;21773;50.010;19.972;2023-03-22T09:58:02;98569.03;;;21.22;41.84
35655;BME280;21773;50.010;19.972;2023-03-22T10:01:15;98561.44;;;22.38;39.73
35655;BME280;21773;50.010;19.972;2023-03-22T10:04:43;98560.34;;;23.47;37.46
35655;BME280;21773;50.010;19.972;2023-03-22T10:08:04;98559.81;;;23.89;35.94
35655;BME280;21773;50.010;19.972;2023-03-22T10:11:20;98547.09;;;24.10;35.22
35655;BME280;21773;50.010;19.972;2023-03-22T10:14:29;98549.94;;;24.28;35.62
35655;BME280;21773;50.010;19.972;2023-03-22T10:17:38;98552.16;;;24.17;34.73
35655;BME280;21773;50.010;19.972;2023-03-22T10:20:48;98554.44;;;23.84;34.66
35655;BME280;21773;50.010;19.972;2023-03-22T10:23:57;98550.63;;;23.71;35.08
35655;BME280;21773;50.010;19.972;2023-03-22T10:27:02;98547.59;;;23.51;35.59
35655;BME280;21773;50.010;19.972;2023-03-22T10:30:11;98540.38;;;23.41;35.30
35655;BME280;21773;50.010;19.972;2023-03-22T10:33:28;98534.00;;;23.32;35.91
35655;BME280;21773;50.010;19.972;2023-03-22T10:36:36;98534.13;;;23.27;36.13
35655;BME280;21773;50.010;19.972;2023-03-22T10:39:44;98536.69;;;23.23;36.76
35655;BME280;21773;50.010;19.972;2023-03-22T10:42:53;98523.47;;;23.25;36.95
35655;BME280;21773;50.010;19.972;2023-03-22T10:46:00;98521.19;;;23.27;36.78
35655;BME280;21773;50.010;19.972;2023-03-22T10:49:06;98527.75;;;23.40;36.78
35655;BME280;21773;50.010;19.972;2023-03-22T10:52:29;98527.75;;;23.40;35.69
35655;BME280;21773;50.010;19.972;2023-03-22T10:55:38;98519.06;;;23.47;36.52
35655;BME280;21773;50.010;19.972;2023-03-22T10:58:43;98522.38;;;23.57;36.15
35655;BME280;21773;50.010;19.972;2023-03-22T11:01:50;98515.47;;;23.68;35.97
35655;BME280;21773;50.010;19.972;2023-03-22T11:04:56;98511.97;;;23.85;34.85
35655;BME280;21773;50.010;19.972;2023-03-22T11:08:01;98503.81;;;24.02;34.22
35655;BME280;21773;50.010;19.972;2023-03-22T11:11:05;98500.13;;;24.15;33.10
35655;BME280;21773;50.010;19.972;2023-03-22T11:14:13;98500.22;;;24.50;33.22
35655;BME280;21773;50.010;19.972;2023-03-22T11:17:19;98491.34;;;25.05;32.34
35655;BME280;21773;50.010;19.972;2023-03-22T11:20:28;98498.34;;;25.83;31.00
35655;BME280;21773;50.010;19.972;2023-03-22T11:23:33;98485.81;;;26.53;30.13
35655;BME280;21773;50.010;19.972;2023-03-22T11:26:36;98490.47;;;26.82;29.23
35655;BME280;21773;50.010;19.972;2023-03-22T11:29:44;98482.63;;;26.84;28.72
35655;BME280;21773;50.010;19.972;2023-03-22T11:32:48;98491.59;;;26.81;28.46
35655;BME280;21773;50.010;19.972;2023-03-22T11:36:13;98482.06;;;26.49;27.95
35655;BME280;21773;50.010;19.972;2023-03-22T11:39:17;98479.97;;;26.16;28.40
35655;BME280;21773;50.010;19.972;2023-03-22T11:42:22;98478.78;;;25.97;29.72
35655;BME280;21773;50.010;19.972;2023-03-22T11:45:27;98476.28;;;25.74;29.34
35655;BME280;21773;50.010;19.972;2023-03-22T11:48:32;98472.22;;;25.72;29.28
35655;BME280;21773;50.010;19.972;2023-03-22T11:51:41;98480.50;;;25.72;29.32
35655;BME280;21773;50.010;19.972;2023-03-22T11:54:45;98471.72;;;25.78;29.57
35655;BME280;21773;50.010;19.972;2023-03-22T11:57:50;98467.16;;;25.82;28.96
35655;BME280;21773;50.010;19.972;2023-03-22T12:01:00;98466.06;;;25.75;28.73
35655;BME280;21773;50.010;19.972;2023-03-22T12:04:08;98462.84;;;25.64;29.13
35655;BME280;21773;50.010;19.972;2023-03-22T12:07:16;98459.59;;;25.54;29.66
35655;BME280;21773;50.010;19.972;2023-03-22T12:10:27;98459.22;;;25.72;29.31
35655;BME280;21773;50.010;19.972;2023-03-22T12:13:38;98452.78;;;25.98;29.75
35655;BME280;21773;50.010;19.972;2023-03-22T12:16:49;98454.75;;;26.26;29.24
35655;BME280;21773;50.010;19.972;2023-03-22T12:19:59;98451.41;;;26.42;29.05
35655;BME280;21773;50.010;19.972;2023-03-22T12:23:12;98441.97;;;26.63;28.41
35655;BME280;21773;50.010;19.972;2023-03-22T12:26:20;98440.22;;;26.80;27.75
35655;BME280;21773;50.010;19.972;2023-03-22T12:29:26;98434.19;;;26.98;28.69
35655;BME280;21773;50.010;19.972;2023-03-22T12:32:33;98434.38;;;27.14;28.23
35655;BME280;21773;50.010;19.972;2023-03-22T12:35:42;98441.97;;;27.05;27.51
35655;BME280;21773;50.010;19.972;2023-03-22T12:38:58;98432.66;;;26.89;27.52
35655;BME280;21773;50.010;19.972;2023-03-22T12:42:11;98422.06;;;26.70;27.01
35655;BME280;21773;50.010;19.972;2023-03-22T12:45:19;98416.91;;;26.48;27.29
35655;BME280;21773;50.010;19.972;2023-03-22T12:48:32;98424.09;;;26.61;27.25
35655;BME280;21773;50.010;19.972;2023-03-22T12:51:39;98411.50;;;26.72;26.94
35655;BME280;21773;50.010;19.972;2023-03-22T12:54:46;98413.03;;;26.61;27.08
35655;BME280;21773;50.010;19.972;2023-03-22T12:57:52;98404.25;;;26.59;26.78
35655;BME280;21773;50.010;19.972;2023-03-22T13:00:59;98411.63;;;26.55;27.28
35655;BME280;21773;50.010;19.972;2023-03-22T13:04:28;98416.94;;;26.39;26.98
35655;BME280;21773;50.010;19.972;2023-03-22T13:07:40;98413.19;;;26.44;27.20
35655;BME280;21773;50.010;19.972;2023-03-22T13:11:03;98413.44;;;26.30;26.94
35655;BME280;21773;50.010;19.972;2023-03-22T13:14:11;98404.75;;;26.11;26.97
35655;BME280;21773;50.010;19.972;2023-03-22T13:17:32;98405.78;;;26.06;27.38
35655;BME280;21773;50.010;19.972;2023-03-22T13:20:38;98405.31;;;25.75;27.19
35655;BME280;21773;50.010;19.972;2023-03-22T13:23:54;98391.16;;;25.38;27.46
35655;BME280;21773;50.010;19.972;2023-03-22T13:26:59;98389.38;;;25.34;27.88
35655;BME280;21773;50.010;19.972;2023-03-22T13:30:05;98384.22;;;25.24;28.59
35655;BME280;21773;50.010;19.972;2023-03-22T13:33:20;98390.59;;;25.16;28.52
35655;BME280;21773;50.010;19.972;2023-03-22T13:36:29;98386.84;;;25.20;28.46
35655;BME280;21773;50.010;19.972;2023-03-22T13:39:33;98380.91;;;25.39;27.88
35655;BME280;21773;50.010;19.972;2023-03-22T13:42:41;98380.22;;;25.51;28.26
35655;BME280;21773;50.010;19.972;2023-03-22T13:46:09;98380.50;;;25.66;28.33
35655;BME280;21773;50.010;19.972;2023-03-22T13:52:53;98362.22;;;26.33;27.74
35655;BME280;21773;50.010;19.972;2023-03-22T13:56:03;98358.25;;;26.42;26.71
35655;BME280;21773;50.010;19.972;2023-03-22T13:59:10;98355.06;;;26.52;26.80
35655;BME280;21773;50.010;19.972;2023-03-22T14:02:16;98344.44;;;26.42;26.83
35655;BME280;21773;50.010;19.972;2023-03-22T14:05:25;98355.06;;;26.32;26.73
35655;BME280;21773;50.010;19.972;2023-03-22T14:08:33;98344.28;;;26.18;26.54
35655;BME280;21773;50.010;19.972;2023-03-22T14:11:42;98341.88;;;26.37;26.96
35655;BME280;21773;50.010;19.972;2023-03-22T14:14:52;98342.19;;;26.36;26.81
35655;BME280;21773;50.010;19.972;2023-03-22T14:18:01;98327.69;;;25.97;26.75
35655;BME280;21773;50.010;19.972;2023-03-22T14:21:10;98339.44;;;25.65;27.26
35655;BME280;21773;50.010;19.972;2023-03-22T14:24:16;98329.13;;;25.44;27.73
35655;BME280;21773;50.010;19.972;2023-03-22T14:27:18;98338.84;;;25.51;28.38
35655;BME280;21773;50.010;19.972;2023-03-22T14:30:34;98328.66;;;25.72;28.41
35655;BME280;21773;50.010;19.972;2023-03-22T14:33:39;98326.38;;;25.74;26.61
35655;BME280;21773;50.010;19.972;2023-03-22T14:36:45;98322.22;;;25.88;27.08
35655;BME280;21773;50.010;19.972;2023-03-22T14:39:50;98330.41;;;25.76;26.56
35655;BME280;21773;50.010;19.972;2023-03-22T14:42:52;98332.63;;;25.62;26.99
35655;BME280;21773;50.010;19.972;2023-03-22T14:46:04;98328.78;;;25.46;26.86
35655;BME280;21773;50.010;19.972;2023-03-22T14:49:14;98324.34;;;25.24;27.33
35655;BME280;21773;50.010;19.972;2023-03-22T14:52:19;98322.84;;;25.35;27.72
35655;BME280;21773;50.010;19.972;2023-03-22T14:55:23;98327.88;;;25.33;27.64
35655;BME280;21773;50.010;19.972;2023-03-22T14:58:32;98327.22;;;25.28;27.66
35655;BME280;21773;50.010;19.972;2023-03-22T15:01:41;98317.88;;;25.20;28.22
35655;BME280;21773;50.010;19.972;2023-03-22T15:04:43;98314.75;;;25.22;28.56
35655;BME280;21773;50.010;19.972;2023-03-22T15:18:36;98321.19;;;24.96;28.41
35655;BME280;21773;50.010;19.972;2023-03-22T15:21:40;98318.66;;;24.66;28.23
35655;BME280;21773;50.010;19.972;2023-03-22T15:24:49;98319.78;;;24.65;28.69
35655;BME280;21773;50.010;19.972;2023-03-22T15:27:52;98309.28;;;24.58;28.79
35655;BME280;21773;50.010;19.972;2023-03-22T15:30:55;98311.88;;;24.46;29.32
35655;BME280;21773;50.010;19.972;2023-03-22T15:34:04;98306.53;;;24.32;29.23
35655;BME280;21773;50.010;19.972;2023-03-22T15:37:13;98283.66;;;24.14;29.51
35655;BME280;21773;50.010;19.972;2023-03-22T15:40:29;98295.97;;;24.00;29.67
35655;BME280;21773;50.010;19.972;2023-03-22T15:43:37;98304.41;;;24.03;30.29
35655;BME280;21773;50.010;19.972;2023-03-22T15:46:51;98303.91;;;23.93;30.17
35655;BME280;21773;50.010;19.972;2023-03-22T15:49:56;98297.75;;;23.70;30.15
35655;BME280;21773;50.010;19.972;2023-03-22T15:52:59;98297.06;;;23.56;30.60
35655;BME280;21773;50.010;19.972;2023-03-22T15:56:01;98298.97;;;23.47;30.63
35655;BME280;21773;50.010;19.972;2023-03-22T15:59:15;98300.41;;;23.36;30.99
35655;BME280;21773;50.010;19.972;2023-03-22T16:02:24;98291.75;;;23.20;31.19
35655;BME280;21773;50.010;19.972;2023-03-22T16:05:28;98295.59;;;23.02;31.37
35655;BME280;21773;50.010;19.972;2023-03-22T16:08:30;98295.31;;;22.81;31.55
35655;BME280;21773;50.010;19.972;2023-03-22T16:11:34;98299.38;;;22.61;31.94
35655;BME280;21773;50.010;19.972;2023-03-22T16:14:36;98304.00;;;22.52;32.17
35655;BME280;21773;50.010;19.972;2023-03-22T16:17:39;98307.31;;;22.40;32.66
35655;BME280;21773;50.010;19.972;2023-03-22T16:20:43;98298.63;;;22.25;33.12
35655;BME280;21773;50.010;19.972;2023-03-22T16:23:46;98287.84;;;22.06;32.91
35655;BME280;21773;50.010;19.972;2023-03-22T16:26:48;98295.38;;;22.00;33.43
35655;BME280;21773;50.010;19.972;2023-03-22T16:29:50;98264.56;;;21.68;33.33
35655;BME280;21773;50.010;19.972;2023-03-22T16:32:53;98306.59;;;21.77;33.46
35655;BME280;21773;50.010;19.972;2023-03-22T16:35:56;98298.69;;;21.61;33.67
35655;BME280;21773;50.010;19.972;2023-03-22T16:38:58;98289.31;;;21.40;34.09
35655;BME280;21773;50.010;19.972;2023-03-22T16:42:01;98301.78;;;21.33;34.64